Time;durP1;ratioP1;P1;durP2;ratioP2;P2;SDS_P1;SDS_P2;PMS_P1;PMS_P2;Temp;Humidity;BMP_temperature;BMP_pressure;BME280_temperature;BME280_humidity;BME280_pressure;Samples;Min_cycle;Max_cycle;Signal;HPM_P1;HPM_P2
2022/10/20 00:00:45;;;;;;;10.55;7.00;;;;;;;11.29;100.00;101598.44;5278282;28;20021;-76
2022/10/20 00:03:17;;;;;;;11.20;8.23;;;;;;;11.29;100.00;101584.47;5277151;28;20036;-77
2022/10/20 00:05:48;;;;;;;13.18;7.93;;;;;;;11.23;100.00;101582.31;5277822;28;20028;-77
2022/10/20 00:08:19;;;;;;;9.15;6.68;;;;;;;11.25;100.00;101581.25;5277174;28;20032;-77
2022/10/20 00:10:53;;;;;;;12.95;7.57;;;;;;;11.22;100.00;101576.25;5278493;28;20166;-76
2022/10/20 00:13:24;;;;;;;11.70;7.70;;;;;;;11.18;100.00;101578.25;5278482;28;20031;-76
2022/10/20 00:15:57;;;;;;;9.45;7.20;;;;;;;11.20;100.00;101578.13;5278625;28;20420;-76
2022/10/20 00:18:29;;;;;;;10.10;7.45;;;;;;;11.14;100.00;101581.25;5277864;28;20024;-79
2022/10/20 00:21:04;;;;;;;12.38;7.15;;;;;;;11.23;100.00;101577.91;5277555;28;20037;-75
2022/10/20 00:23:36;;;;;;;12.43;8.35;;;;;;;11.11;100.00;101573.59;5279042;28;20039;-76
2022/10/20 00:26:10;;;;;;;12.43;7.72;;;;;;;11.21;100.00;101585.03;5276706;28;20020;-78
2022/10/20 00:28:43;;;;;;;11.90;7.82;;;;;;;11.11;100.00;101584.09;5277224;28;20051;-79
2022/10/20 00:31:15;;;;;;;9.90;8.07;;;;;;;11.11;100.00;101563.94;5277120;28;20549;-76
2022/10/20 00:33:46;;;;;;;11.53;9.30;;;;;;;11.06;100.00;101559.97;5277864;28;20119;-76
2022/10/20 00:36:19;;;;;;;9.95;7.85;;;;;;;11.04;100.00;101561.91;5276232;28;20126;-77
2022/10/20 00:38:59;;;;;;;12.23;8.50;;;;;;;11.10;100.00;101559.66;5277598;28;20604;-76
2022/10/20 00:41:32;;;;;;;12.13;8.65;;;;;;;10.91;100.00;101554.97;5277347;28;20039;-76
2022/10/20 00:44:40;;;;;;;12.45;9.07;;;;;;;11.18;100.00;101557.28;5277983;28;20016;-76
2022/10/20 00:47:15;;;;;;;14.23;8.30;;;;;;;10.95;100.00;101540.66;5278017;28;20032;-76
2022/10/20 00:49:48;;;;;;;10.13;8.57;;;;;;;10.91;100.00;101531.38;5276679;28;20032;-77
2022/10/20 00:52:21;;;;;;;15.60;8.98;;;;;;;10.93;100.00;101536.47;5276560;28;20024;-76
2022/10/20 00:54:52;;;;;;;12.65;8.45;;;;;;;10.95;100.00;101548.53;5276360;28;20024;-76
2022/10/20 00:57:23;;;;;;;12.60;8.73;;;;;;;10.93;100.00;101534.69;5277300;28;20097;-76
2022/10/20 00:59:55;;;;;;;11.95;8.68;;;;;;;10.88;100.00;101542.06;5276688;28;20081;-77
2022/10/20 01:02:26;;;;;;;11.23;8.73;;;;;;;10.89;100.00;101548.16;5275497;28;20032;-77
2022/10/20 01:04:58;;;;;;;13.55;9.85;;;;;;;10.90;100.00;101537.53;5278355;28;20035;-76
2022/10/20 01:07:29;;;;;;;13.70;9.60;;;;;;;10.89;100.00;101529.78;5276830;28;20031;-78
2022/10/20 01:10:03;;;;;;;15.55;10.57;;;;;;;10.91;100.00;101520.00;5276074;28;20028;-76
2022/10/20 01:12:45;;;;;;;16.52;10.43;;;;;;;11.02;100.00;101506.09;5277409;28;20315;-76
2022/10/20 01:15:30;;;;;;;13.65;9.88;;;;;;;11.07;100.00;101503.97;5276889;28;20037;-76
2022/10/20 01:18:07;;;;;;;12.27;8.90;;;;;;;11.08;100.00;101487.28;5276956;28;20021;-76
2022/10/20 01:21:06;;;;;;;13.52;10.23;;;;;;;11.14;100.00;101481.59;5275890;28;20029;-77
2022/10/20 01:24:00;;;;;;;14.45;10.30;;;;;;;11.21;100.00;101485.38;5277663;28;20028;-76
2022/10/20 01:27:00;;;;;;;11.38;9.63;;;;;;;11.20;100.00;101470.59;5275681;28;20024;-77
2022/10/20 01:29:43;;;;;;;13.02;10.27;;;;;;;11.17;100.00;101468.22;5275828;28;20024;-77
2022/10/20 01:32:29;;;;;;;14.73;10.27;;;;;;;11.17;100.00;101457.72;5276406;28;20012;-78
2022/10/20 01:35:16;;;;;;;13.88;10.48;;;;;;;11.22;100.00;101467.88;5275675;28;20031;-77
2022/10/20 01:38:03;;;;;;;17.33;10.90;;;;;;;11.21;100.00;101469.63;5258615;28;20032;-76
2022/10/20 01:40:54;;;;;;;12.43;10.43;;;;;;;11.23;100.00;101459.03;5276146;28;20071;-77
2022/10/20 01:43:30;;;;;;;15.55;11.32;;;;;;;11.16;100.00;101466.56;5275251;28;20020;-76
2022/10/20 01:46:03;;;;;;;13.02;10.40;;;;;;;11.18;100.00;101481.22;5275617;28;20025;-76
2022/10/20 01:48:36;;;;;;;13.80;10.13;;;;;;;11.16;100.00;101477.88;5276195;28;20537;-76
2022/10/20 01:51:09;;;;;;;17.92;11.50;;;;;;;11.15;100.00;101480.63;5275918;28;20024;-79
2022/10/20 01:53:40;;;;;;;14.23;11.07;;;;;;;11.21;100.00;101467.00;5276995;28;20566;-76
2022/10/20 01:56:19;;;;;;;13.30;10.95;;;;;;;11.18;100.00;101470.72;5276567;28;20024;-77
2022/10/20 01:59:07;;;;;;;14.70;10.82;;;;;;;11.03;100.00;101464.06;5276156;28;20016;-76
2022/10/20 02:01:50;;;;;;;14.93;10.63;;;;;;;11.13;100.00;101466.78;5272077;28;20024;-76
2022/10/20 02:04:33;;;;;;;15.77;10.98;;;;;;;11.19;100.00;101475.00;5276032;28;20040;-78
2022/10/20 02:07:14;;;;;;;20.30;10.63;;;;;;;11.24;100.00;101463.34;5274503;28;20047;-76
2022/10/20 02:09:50;;;;;;;14.73;11.20;;;;;;;11.23;100.00;101449.38;5278046;28;20093;-76
2022/10/20 02:12:26;;;;;;;14.63;10.15;;;;;;;11.20;100.00;101452.25;5280864;28;20032;-78
2022/10/20 02:14:59;;;;;;;13.18;10.13;;;;;;;11.15;100.00;101447.34;5280593;28;20103;-77
2022/10/20 02:17:34;;;;;;;17.67;10.93;;;;;;;10.94;100.00;101441.13;5279831;28;20021;-77
2022/10/20 02:20:07;;;;;;;14.27;10.60;;;;;;;10.77;100.00;101437.19;5280840;28;20381;-76
2022/10/20 02:22:39;;;;;;;14.75;11.30;;;;;;;10.77;100.00;101433.75;5280846;28;20545;-77
2022/10/20 02:25:11;;;;;;;13.15;10.85;;;;;;;10.74;100.00;101426.94;5281148;28;20107;-77
2022/10/20 02:27:46;;;;;;;12.27;10.20;;;;;;;10.82;100.00;101421.94;5280179;28;20027;-79
2022/10/20 02:30:18;;;;;;;15.23;11.05;;;;;;;10.64;100.00;101416.31;5280532;28;20481;-76
2022/10/20 02:32:51;;;;;;;12.27;10.45;;;;;;;10.69;100.00;101410.75;5280798;28;20087;-76
2022/10/20 02:35:29;;;;;;;12.68;11.02;;;;;;;10.77;100.00;101403.13;5278773;28;20190;-76
2022/10/20 02:38:01;;;;;;;12.00;10.80;;;;;;;10.64;100.00;101391.91;5280490;28;20355;-77
2022/10/20 02:40:32;;;;;;;13.57;11.48;;;;;;;10.62;100.00;101386.78;5280208;28;20047;-77
2022/10/20 02:43:03;;;;;;;13.38;10.68;;;;;;;10.63;100.00;101382.38;5280380;28;20461;-77
2022/10/20 02:45:34;;;;;;;15.32;11.65;;;;;;;10.64;100.00;101378.81;5278594;28;20016;-77
2022/10/20 02:48:08;;;;;;;14.57;11.52;;;;;;;10.56;100.00;101363.66;5279485;28;20082;-77
2022/10/20 02:50:39;;;;;;;16.27;11.60;;;;;;;10.58;100.00;101363.56;5279685;28;20113;-77
2022/10/20 02:53:10;;;;;;;16.73;12.82;;;;;;;10.59;100.00;101357.38;5279643;28;20028;-77
2022/10/20 02:55:42;;;;;;;15.25;12.60;;;;;;;10.63;100.00;101364.88;5278818;28;20711;-77
2022/10/20 02:58:13;;;;;;;13.82;12.18;;;;;;;10.57;100.00;101349.63;5280723;28;20047;-77
2022/10/20 03:00:44;;;;;;;15.32;12.55;;;;;;;10.62;100.00;101339.63;5278895;28;20052;-77
2022/10/20 03:03:17;;;;;;;16.27;12.40;;;;;;;10.64;100.00;101342.13;5277094;28;20032;-77
2022/10/20 03:05:48;;;;;;;15.03;12.67;;;;;;;10.60;100.00;101332.81;5279511;28;20149;-77
2022/10/20 03:08:20;;;;;;;17.42;12.90;;;;;;;10.66;100.00;101332.38;5279334;28;20817;-77
2022/10/20 03:10:51;;;;;;;17.90;12.60;;;;;;;10.63;100.00;101329.97;5279169;28;20381;-77
2022/10/20 03:13:22;;;;;;;17.88;12.82;;;;;;;10.68;100.00;101333.06;5279528;28;20477;-77
2022/10/20 03:15:54;;;;;;;19.13;12.90;;;;;;;10.67;100.00;101326.16;5279531;28;20103;-77
2022/10/20 03:18:25;;;;;;;17.45;13.98;;;;;;;10.71;100.00;101325.78;5278081;28;20013;-77
2022/10/20 03:20:56;;;;;;;19.35;14.13;;;;;;;10.69;100.00;101324.28;5279183;28;20025;-77
2022/10/20 03:23:27;;;;;;;18.58;13.90;;;;;;;10.69;100.00;101326.88;5279080;28;20025;-77
2022/10/20 03:26:04;;;;;;;18.77;13.55;;;;;;;10.81;100.00;101312.81;5279339;28;20025;-77
2022/10/20 03:28:36;;;;;;;19.70;14.68;;;;;;;10.76;100.00;101317.59;5279007;28;20035;-77
2022/10/20 03:31:08;;;;;;;19.87;14.20;;;;;;;10.82;100.00;101303.16;5279634;28;20025;-77
2022/10/20 03:33:39;;;;;;;17.77;14.27;;;;;;;10.85;100.00;101295.91;5278205;28;20028;-77
2022/10/20 03:36:10;;;;;;;15.70;13.98;;;;;;;10.76;100.00;101278.28;5279091;28;20039;-77
2022/10/20 03:38:42;;;;;;;16.50;14.18;;;;;;;10.93;100.00;101298.75;5278865;28;20045;-77
2022/10/20 03:41:13;;;;;;;20.98;15.32;;;;;;;10.96;100.00;101305.53;5278631;28;20028;-77
2022/10/20 03:43:44;;;;;;;21.95;14.35;;;;;;;11.04;100.00;101289.22;5278852;28;20550;-77
2022/10/20 03:46:16;;;;;;;19.08;14.82;;;;;;;10.97;100.00;101304.59;5278777;28;20040;-77
2022/10/20 03:48:47;;;;;;;21.98;15.23;;;;;;;10.99;100.00;101300.06;5278334;28;20070;-77
2022/10/20 03:51:18;;;;;;;20.40;15.88;;;;;;;11.03;100.00;101293.63;5277214;28;20485;-77
2022/10/20 03:53:50;;;;;;;19.08;15.43;;;;;;;10.98;100.00;101268.72;5273672;28;20016;-77
2022/10/20 03:56:21;;;;;;;20.92;15.27;;;;;;;11.04;100.00;101284.78;5279191;28;20047;-77
2022/10/20 03:58:52;;;;;;;24.13;16.10;;;;;;;11.05;100.00;101275.13;5278913;28;20017;-76
2022/10/20 04:01:29;;;;;;;18.70;15.82;;;;;;;11.12;100.00;101279.75;5274513;28;20117;-77
2022/10/20 04:04:00;;;;;;;23.45;16.00;;;;;;;11.09;100.00;101280.00;5279105;28;20035;-77
2022/10/20 04:06:31;;;;;;;19.83;16.48;;;;;;;11.09;100.00;101272.13;5276669;28;20024;-77
2022/10/20 04:09:03;;;;;;;20.85;16.10;;;;;;;11.18;100.00;101274.03;5277089;28;20125;-77
2022/10/20 04:11:35;;;;;;;21.98;16.17;;;;;;;11.21;100.00;101270.31;5277633;28;20021;-77
2022/10/20 04:14:06;;;;;;;21.63;16.15;;;;;;;11.29;100.00;101267.94;5278498;28;20057;-77
2022/10/20 04:16:37;;;;;;;19.27;16.10;;;;;;;11.23;100.00;101267.59;5277393;28;20082;-77
2022/10/20 04:19:08;;;;;;;19.90;15.60;;;;;;;11.28;100.00;101260.16;5277566;28;20023;-78
2022/10/20 04:21:40;;;;;;;20.60;16.13;;;;;;;11.29;100.00;101248.72;5278241;28;20052;-77
2022/10/20 04:24:11;;;;;;;22.10;16.38;;;;;;;11.34;100.00;101250.00;5276798;28;20032;-77
2022/10/20 04:26:42;;;;;;;19.50;16.42;;;;;;;11.35;100.00;101246.44;5277663;28;20044;-77
2022/10/20 04:29:13;;;;;;;17.42;15.52;;;;;;;11.37;100.00;101234.03;5277474;28;20042;-77
2022/10/20 04:31:45;;;;;;;21.27;15.98;;;;;;;11.48;100.00;101235.78;5277363;28;20056;-77
2022/10/20 04:34:16;;;;;;;20.48;16.52;;;;;;;11.54;100.00;101223.94;5277672;28;20031;-77
2022/10/20 04:36:47;;;;;;;20.92;16.30;;;;;;;11.54;100.00;101223.94;5276932;28;20052;-77
2022/10/20 04:39:19;;;;;;;21.95;16.80;;;;;;;11.61;100.00;101238.22;5277688;28;20084;-77
2022/10/20 04:41:50;;;;;;;17.25;15.38;;;;;;;11.66;100.00;101236.03;5275986;28;20020;-77
2022/10/20 04:44:22;;;;;;;17.83;15.45;;;;;;;11.68;100.00;101234.13;5276606;28;20028;-77
2022/10/20 04:46:53;;;;;;;20.45;16.10;;;;;;;11.71;100.00;101236.50;5277803;28;20020;-77
2022/10/20 04:49:25;;;;;;;17.65;15.70;;;;;;;11.77;100.00;101209.72;5273475;28;20028;-77
2022/10/20 04:51:56;;;;;;;22.67;15.77;;;;;;;11.79;100.00;101201.72;5277514;28;20020;-77
2022/10/20 04:54:27;;;;;;;18.20;15.77;;;;;;;11.81;100.00;101208.50;5276695;28;20103;-77
2022/10/20 04:56:59;;;;;;;21.02;15.50;;;;;;;11.79;100.00;101207.81;5271507;28;20546;-77
2022/10/20 04:59:30;;;;;;;19.77;15.75;;;;;;;11.85;100.00;101202.06;5276023;28;20074;-77
2022/10/20 05:02:01;;;;;;;20.95;15.40;;;;;;;11.87;100.00;101199.31;5272508;28;20024;-77
2022/10/20 05:04:33;;;;;;;19.10;15.65;;;;;;;11.89;100.00;101194.75;5277053;28;20145;-77
2022/10/20 05:07:04;;;;;;;18.73;16.25;;;;;;;11.93;100.00;101212.75;5274697;28;20024;-77
2022/10/20 05:09:35;;;;;;;16.83;14.43;;;;;;;11.92;100.00;101218.13;5277295;28;20033;-77
2022/10/20 05:12:06;;;;;;;18.08;14.38;;;;;;;11.93;100.00;101222.41;5276069;28;20031;-77
2022/10/20 05:14:38;;;;;;;17.70;14.65;;;;;;;11.87;100.00;101209.81;5276142;28;20081;-77
2022/10/20 05:17:09;;;;;;;18.33;15.68;;;;;;;11.94;100.00;101195.22;5275317;28;20541;-77
2022/10/20 05:19:40;;;;;;;17.98;14.82;;;;;;;11.93;100.00;101176.00;5276554;28;20016;-78
2022/10/20 05:22:11;;;;;;;17.58;14.65;;;;;;;11.92;100.00;101171.69;5273527;28;20025;-77
2022/10/20 05:24:43;;;;;;;18.33;14.52;;;;;;;11.93;100.00;101188.28;5275137;28;20535;-77
2022/10/20 05:27:14;;;;;;;19.27;15.23;;;;;;;11.96;100.00;101192.44;5277146;28;20470;-77
2022/10/20 05:29:45;;;;;;;22.00;14.55;;;;;;;11.94;100.00;101189.97;5275589;28;20469;-77
2022/10/20 05:32:16;;;;;;;18.92;15.18;;;;;;;11.89;100.00;101182.47;5275626;28;20029;-77
2022/10/20 05:34:48;;;;;;;17.13;14.88;;;;;;;11.87;100.00;101200.16;5277004;28;20482;-77
2022/10/20 05:37:19;;;;;;;16.40;14.30;;;;;;;11.88;100.00;101190.47;5275873;28;20402;-77
2022/10/20 05:39:50;;;;;;;17.48;14.52;;;;;;;11.86;100.00;101177.50;5276829;28;20394;-77
2022/10/20 05:42:22;;;;;;;19.92;14.90;;;;;;;11.85;100.00;101167.94;5276337;28;20031;-77
2022/10/20 05:44:53;;;;;;;20.40;14.07;;;;;;;11.86;100.00;101156.47;5277141;28;20028;-77
2022/10/20 05:47:24;;;;;;;17.85;14.27;;;;;;;11.87;100.00;101173.06;5276438;28;20020;-77
2022/10/20 05:49:55;;;;;;;17.58;14.77;;;;;;;11.88;100.00;101186.03;5274912;28;20055;-77
2022/10/20 05:52:27;;;;;;;16.48;13.63;;;;;;;11.87;100.00;101181.75;5276671;28;20039;-77
2022/10/20 05:54:59;;;;;;;18.55;14.35;;;;;;;11.88;100.00;101190.47;5276584;28;20108;-77
2022/10/20 05:57:30;;;;;;;19.67;14.63;;;;;;;11.86;100.00;101187.16;5276523;28;20103;-77
2022/10/20 06:00:02;;;;;;;20.33;14.60;;;;;;;11.87;100.00;101183.56;5275938;28;20099;-77
2022/10/20 06:02:36;;;;;;;19.42;14.68;;;;;;;11.93;100.00;101185.66;5275899;28;20432;-77
2022/10/20 06:05:07;;;;;;;20.83;14.02;;;;;;;11.89;100.00;101184.25;5276201;28;20028;-77
2022/10/20 06:07:39;;;;;;;18.42;14.43;;;;;;;11.91;100.00;101180.53;5275891;28;20024;-77
2022/10/20 06:10:10;;;;;;;17.75;13.52;;;;;;;11.89;100.00;101181.63;5276023;28;20111;-77
2022/10/20 06:12:41;;;;;;;18.67;13.77;;;;;;;11.89;100.00;101171.97;5276597;28;20382;-77
2022/10/20 06:15:12;;;;;;;16.00;14.27;;;;;;;11.84;100.00;101168.06;5276432;28;20107;-78
2022/10/20 06:17:45;;;;;;;18.73;14.93;;;;;;;11.93;100.00;101180.41;5276399;28;21698;-78
2022/10/20 06:20:17;;;;;;;18.80;14.00;;;;;;;11.94;100.00;101184.72;5275368;28;20040;-78
2022/10/20 06:22:48;;;;;;;18.58;13.82;;;;;;;11.97;100.00;101186.22;5273524;28;20486;-78
2022/10/20 06:25:19;;;;;;;17.65;14.75;;;;;;;11.98;100.00;101190.53;5275332;28;20024;-77
2022/10/20 06:27:50;;;;;;;18.23;14.68;;;;;;;11.99;100.00;101187.75;5276197;28;20024;-78
2022/10/20 06:30:22;;;;;;;16.48;13.65;;;;;;;12.02;100.00;101178.81;5276050;28;20111;-77
2022/10/20 06:32:53;;;;;;;19.40;14.55;;;;;;;12.02;100.00;101177.00;5276449;28;20470;-78
2022/10/20 06:35:25;;;;;;;16.88;13.45;;;;;;;12.09;100.00;101182.56;5276282;28;20490;-77
2022/10/20 06:37:56;;;;;;;16.60;14.25;;;;;;;12.09;100.00;101170.28;5275399;28;20394;-78
2022/10/20 06:40:27;;;;;;;21.33;15.77;;;;;;;12.10;100.00;101168.47;5273584;28;20566;-78
2022/10/20 06:42:58;;;;;;;16.30;14.65;;;;;;;12.17;100.00;101170.44;5275914;28;20034;-77
2022/10/20 06:45:30;;;;;;;16.83;13.27;;;;;;;12.20;100.00;101171.97;5275600;28;20012;-77
2022/10/20 06:48:01;;;;;;;19.25;14.63;;;;;;;12.20;100.00;101171.97;5274988;28;20031;-78
2022/10/20 06:50:33;;;;;;;20.38;14.20;;;;;;;12.17;100.00;101153.84;5275968;28;20440;-78
2022/10/20 06:53:04;;;;;;;18.33;14.60;;;;;;;12.28;100.00;101166.88;5276431;28;20031;-77
2022/10/20 06:55:36;;;;;;;19.75;14.05;;;;;;;12.32;100.00;101165.66;5276045;28;20273;-77
2022/10/20 06:58:07;;;;;;;16.23;13.50;;;;;;;12.29;100.00;101155.41;5278913;28;20047;-78
2022/10/20 07:00:39;;;;;;;15.98;14.25;;;;;;;12.32;100.00;101152.50;5278616;28;20025;-78
2022/10/20 07:03:10;;;;;;;15.57;13.75;;;;;;;12.36;100.00;101145.19;5278684;28;20055;-78
2022/10/20 07:05:41;;;;;;;18.38;13.90;;;;;;;12.39;100.00;101137.06;5280148;28;20121;-77
2022/10/20 07:08:12;;;;;;;18.67;13.75;;;;;;;12.44;100.00;101139.28;5278238;28;20025;-78
2022/10/20 07:10:43;;;;;;;18.10;13.43;;;;;;;12.47;100.00;101158.22;5278854;28;20036;-78
2022/10/20 07:13:15;;;;;;;16.58;12.85;;;;;;;12.53;100.00;101169.97;5279545;28;20406;-78
2022/10/20 07:15:46;;;;;;;14.73;13.13;;;;;;;12.55;100.00;101162.81;5278982;28;20401;-78
2022/10/20 07:18:17;;;;;;;16.15;12.25;;;;;;;12.55;100.00;101152.28;5279257;28;20470;-78
2022/10/20 07:20:49;;;;;;;15.45;13.05;;;;;;;12.62;100.00;101154.25;5278527;28;20074;-78
2022/10/20 07:23:20;;;;;;;16.10;13.32;;;;;;;12.65;100.00;101158.38;5280006;28;20059;-78
2022/10/20 07:25:58;;;;;;;16.48;13.82;;;;;;;12.65;100.00;101150.50;5276261;28;20017;-78
2022/10/20 07:28:30;;;;;;;16.92;13.38;;;;;;;12.72;100.00;101156.03;5278894;28;20580;-78
2022/10/20 07:31:06;;;;;;;16.63;13.07;;;;;;;12.84;100.00;101163.69;5278862;28;20115;-78
2022/10/20 07:33:38;;;;;;;18.35;14.05;;;;;;;12.81;100.00;101169.22;5279373;28;20029;-78
2022/10/20 07:36:24;;;;;;;15.68;13.00;;;;;;;12.97;100.00;101167.84;5279445;28;20036;-78
2022/10/20 07:38:58;;;;;;;16.02;13.63;;;;;;;12.88;100.00;101169.50;5278731;28;20382;-78
2022/10/20 07:41:30;;;;;;;16.33;12.68;;;;;;;12.89;100.00;101164.09;5278662;28;20113;-78
2022/10/20 07:44:02;;;;;;;14.95;13.43;;;;;;;12.89;100.00;101153.59;5278965;28;20107;-78
2022/10/20 07:46:34;;;;;;;15.63;12.80;;;;;;;13.01;100.00;101171.88;5278545;28;20035;-78
2022/10/20 07:49:05;;;;;;;18.50;12.20;;;;;;;13.04;100.00;101167.16;5278690;28;20031;-78
2022/10/20 07:51:37;;;;;;;16.85;13.52;;;;;;;13.06;100.00;101156.47;5277635;28;20025;-78
2022/10/20 07:54:10;;;;;;;16.80;12.80;;;;;;;13.10;100.00;101158.69;5278991;28;20020;-78
2022/10/20 07:56:42;;;;;;;;;;;;;;;13.67;100.00;101174.59;5278901;28;20028;-78
2022/10/20 07:59:13;;;;;;;15.13;12.85;;;;;;;13.25;100.00;101176.72;5278879;28;20374;-78
2022/10/20 08:01:45;;;;;;;17.98;12.98;;;;;;;13.20;100.00;101165.78;5278218;28;20021;-78
2022/10/20 08:04:16;;;;;;;17.77;13.82;;;;;;;13.28;100.00;101172.03;5277305;28;20544;-78
2022/10/20 08:06:48;;;;;;;16.38;12.13;;;;;;;13.31;100.00;101155.97;5277910;28;20233;-78
2022/10/20 08:09:19;;;;;;;19.27;13.35;;;;;;;13.41;100.00;101158.59;5276512;28;20035;-78
2022/10/20 08:11:50;;;;;;;17.52;13.85;;;;;;;13.43;100.00;101168.97;5277850;28;20035;-78
2022/10/20 08:14:25;;;;;;;17.35;12.85;;;;;;;13.47;100.00;101165.91;5277887;28;20070;-78
2022/10/20 08:16:56;;;;;;;14.05;12.43;;;;;;;13.45;100.00;101148.56;5278567;28;20486;-78
2022/10/20 08:19:28;;;;;;;15.60;13.15;;;;;;;13.56;100.00;101157.19;5278138;28;20036;-78
2022/10/20 08:21:59;;;;;;;15.07;13.02;;;;;;;13.56;100.00;101141.38;5276520;28;20032;-78
2022/10/20 08:24:31;;;;;;;14.18;12.30;;;;;;;13.66;100.00;101157.13;5278106;28;20490;-78
2022/10/20 08:27:02;;;;;;;15.27;12.60;;;;;;;13.71;100.00;101152.25;5277135;28;20020;-78
2022/10/20 08:29:35;;;;;;;15.70;11.68;;;;;;;13.70;100.00;101150.63;5277727;28;20056;-78
2022/10/20 08:32:06;;;;;;;18.17;12.45;;;;;;;13.76;100.00;101147.41;5276436;28;20048;-78
2022/10/20 08:34:37;;;;;;;14.95;12.82;;;;;;;13.82;100.00;101149.47;5278183;28;20733;-78
2022/10/20 08:37:09;;;;;;;15.40;12.15;;;;;;;13.83;100.00;101145.03;5278074;28;20056;-78
2022/10/20 08:39:40;;;;;;;15.52;10.77;;;;;;;13.90;100.00;101150.53;5276700;28;20033;-78
2022/10/20 08:42:11;;;;;;;13.77;10.85;;;;;;;14.00;100.00;101153.97;5275716;28;20036;-78
2022/10/20 08:44:45;;;;;;;13.73;11.40;;;;;;;14.12;100.00;101151.00;5277483;28;21095;-78
2022/10/20 08:47:26;;;;;;;15.07;11.10;;;;;;;14.28;100.00;101149.53;5277446;28;20028;-78
2022/10/20 08:49:58;;;;;;;13.88;11.05;;;;;;;14.25;100.00;101152.50;5277001;28;20756;-78
2022/10/20 08:52:30;;;;;;;16.15;11.48;;;;;;;14.31;100.00;101138.72;5277125;28;20107;-78
2022/10/20 08:55:04;;;;;;;13.38;10.55;;;;;;;14.43;100.00;101126.97;5277135;28;20112;-78
2022/10/20 08:57:35;;;;;;;15.38;11.48;;;;;;;14.46;100.00;101118.78;5275790;28;20078;-78
2022/10/20 09:00:17;;;;;;;12.93;11.00;;;;;;;14.67;100.00;101115.91;5278082;28;20409;-78
2022/10/20 09:02:50;;;;;;;16.30;11.15;;;;;;;14.63;100.00;101117.19;5276948;28;20028;-78
2022/10/20 09:05:27;;;;;;;16.50;11.80;;;;;;;14.76;100.00;101122.09;5277573;28;20074;-78
2022/10/20 09:07:59;;;;;;;13.52;10.32;;;;;;;14.76;100.00;101128.19;5275919;28;20121;-78
2022/10/20 09:10:34;;;;;;;13.27;10.45;;;;;;;14.86;100.00;101119.38;5275626;28;20051;-78
2022/10/20 09:13:13;;;;;;;16.55;10.95;;;;;;;14.89;100.00;101111.16;5277716;28;20030;-78
2022/10/20 09:15:45;;;;;;;14.70;10.40;;;;;;;14.92;100.00;101121.41;5276992;28;20445;-78
2022/10/20 09:18:18;;;;;;;13.75;10.50;;;;;;;14.99;100.00;101125.09;5272404;28;20119;-78
2022/10/20 09:20:56;;;;;;;16.85;11.30;;;;;;;15.08;100.00;101126.84;5276228;28;20051;-78
2022/10/20 09:23:37;;;;;;;13.38;10.48;;;;;;;15.14;100.00;101125.38;5276104;28;20040;-78
2022/10/20 09:26:19;;;;;;;14.30;10.18;;;;;;;15.16;100.00;101123.44;5276296;28;20475;-78
2022/10/20 09:29:02;;;;;;;11.57;10.32;;;;;;;15.05;100.00;101121.84;5276442;28;20474;-78
2022/10/20 09:31:39;;;;;;;12.15;9.55;;;;;;;15.22;100.00;101120.16;5276303;28;20030;-78
2022/10/20 09:34:29;;;;;;;13.88;10.73;;;;;;;15.28;100.00;101117.75;5276192;28;20039;-78
2022/10/20 09:37:10;;;;;;;13.60;10.02;;;;;;;15.24;100.00;101126.94;5276156;28;20028;-78
2022/10/20 09:39:51;;;;;;;18.15;10.40;;;;;;;15.26;100.00;101114.41;5275931;28;20037;-78
2022/10/20 09:42:33;;;;;;;14.05;10.85;;;;;;;15.37;100.00;101136.28;5276255;28;20558;-78
2022/10/20 09:45:20;;;;;;;13.88;10.13;;;;;;;15.45;100.00;101137.16;5276387;28;20050;-78
2022/10/20 09:47:57;;;;;;;13.38;9.52;;;;;;;15.29;100.00;101140.50;5274868;28;20081;-78
2022/10/20 09:50:33;;;;;;;12.43;10.07;;;;;;;15.29;100.00;101142.31;5276059;28;20063;-78
2022/10/20 09:53:16;;;;;;;16.20;9.25;;;;;;;15.29;100.00;101127.31;5275564;28;20162;-78
2022/10/20 09:55:49;;;;;;;;;;;;;;;15.84;100.00;101112.19;5277218;28;20534;-78
2022/10/20 09:58:27;;;;;;;10.88;9.30;;;;;;;15.38;100.00;101111.53;5275854;28;20007;-78
2022/10/20 10:01:03;;;;;;;13.00;9.70;;;;;;;15.26;100.00;101114.41;5274600;28;20031;-78
2022/10/20 10:03:43;;;;;;;13.57;10.05;;;;;;;15.38;100.00;101122.09;5276420;28;20021;-78
2022/10/20 10:06:37;;;;;;;11.82;10.23;;;;;;;15.43;100.00;101110.09;5275633;28;20439;-78
2022/10/20 10:09:36;;;;;;;13.52;10.52;;;;;;;15.47;100.00;101113.25;5276049;28;20028;-78
2022/10/20 10:12:10;;;;;;;12.98;10.05;;;;;;;15.26;100.00;101114.41;5276163;28;20444;-78
2022/10/20 10:14:52;;;;;;;13.55;10.55;;;;;;;15.32;100.00;101124.38;5275142;28;20025;-78
2022/10/20 10:17:30;;;;;;;13.40;10.80;;;;;;;15.22;100.00;101114.88;5275588;28;20048;-79
2022/10/20 10:20:05;;;;;;;14.82;11.70;;;;;;;15.11;100.00;101113.31;5276008;28;20028;-78
2022/10/20 10:22:38;;;;;;;13.40;10.40;;;;;;;15.03;100.00;101108.78;5275571;28;20087;-79
2022/10/20 10:25:22;;;;;;;16.52;11.35;;;;;;;15.21;100.00;101105.31;5276290;28;20025;-80
2022/10/20 10:27:59;;;;;;;14.60;11.02;;;;;;;15.10;100.00;101098.47;5276326;28;20016;-78
2022/10/20 10:30:39;;;;;;;18.00;11.13;;;;;;;15.08;100.00;101090.72;5276093;28;20107;-79
2022/10/20 10:33:26;;;;;;;16.65;10.85;;;;;;;15.20;100.00;101074.63;5280086;28;20021;-79
2022/10/20 10:36:01;;;;;;;17.38;12.25;;;;;;;15.06;100.00;101082.13;5280012;28;20516;-79
2022/10/20 10:38:35;;;;;;;14.27;11.05;;;;;;;15.03;100.00;101071.03;5278824;28;20498;-79
2022/10/20 10:41:30;;;;;;;17.20;12.07;;;;;;;15.16;100.00;101065.38;5278694;28;20047;-79
2022/10/20 10:44:08;;;;;;;16.70;12.45;;;;;;;15.09;100.00;101081.81;5278168;28;20034;-79
2022/10/20 10:46:47;;;;;;;16.70;12.70;;;;;;;15.09;100.00;101086.25;5278818;28;20050;-79
2022/10/20 10:49:31;;;;;;;13.15;11.82;;;;;;;15.24;100.00;101082.09;5278382;28;20017;-79
2022/10/20 10:52:06;;;;;;;13.02;11.68;;;;;;;15.14;100.00;101096.34;5278505;28;20462;-79
2022/10/20 10:55:17;;;;;;;17.17;12.38;;;;;;;15.13;100.00;101090.25;5279079;28;20109;-79
2022/10/20 10:58:01;;;;;;;15.98;11.95;;;;;;;15.10;100.00;101087.91;5209879;28;20070;-79
2022/10/20 11:00:47;;;;;;;16.15;12.82;;;;;;;15.02;100.00;101086.03;5277777;28;20028;-80
2022/10/20 11:03:47;;;;;;;18.10;13.30;;;;;;;15.22;100.00;101072.66;5276595;28;20032;-80
2022/10/20 11:06:41;;;;;;;16.98;12.65;;;;;;;15.16;100.00;101063.56;5278271;28;20025;-80
2022/10/20 11:09:31;;;;;;;18.65;12.35;;;;;;;15.06;100.00;101060.19;5276759;28;20033;-79
2022/10/20 11:12:23;;;;;;;15.23;13.52;;;;;;;15.20;100.00;101056.16;5277816;28;20507;-80
2022/10/20 11:15:07;;;;;;;14.48;12.68;;;;;;;15.16;100.00;101060.91;5277352;28;20166;-79
2022/10/20 11:17:54;;;;;;;18.05;13.63;;;;;;;15.08;100.00;101056.41;5277428;28;20138;-79
2022/10/20 11:20:37;;;;;;;14.95;13.30;;;;;;;15.16;100.00;101060.09;5278721;28;20028;-79
2022/10/20 11:23:36;;;;;;;18.10;13.55;;;;;;;15.22;100.00;101054.19;5278054;28;20028;-79
2022/10/20 11:26:13;;;;;;;15.70;13.88;;;;;;;15.17;100.00;101045.91;5277433;28;20036;-79
2022/10/20 11:28:48;;;;;;;19.63;13.93;;;;;;;15.06;100.00;101044.34;5276758;28;20068;-79
2022/10/20 11:31:39;;;;;;;17.27;13.73;;;;;;;15.10;100.00;101037.78;5276787;28;20038;-79
2022/10/20 11:34:42;;;;;;;19.33;13.90;;;;;;;15.31;100.00;101018.94;5278161;28;20078;-79
2022/10/20 11:37:16;;;;;;;19.52;14.23;;;;;;;15.15;100.00;101014.38;5268446;28;20130;-79
2022/10/20 11:39:57;;;;;;;20.88;14.38;;;;;;;15.15;100.00;101006.47;5274321;28;96273;-79